weather.gov     
National Weather Service

Terminal Aerodrome Forecast
NWS Homepage
This page is being discontinued on March 12, 2014.
The same data is available at this site. Please update your bookmarks.
Thank you, and we apologize for the inconvenience.
Please send an email to SR-SRH.Webmaster@noaa.gov with any concerns.


Current Version
Previous Version:    01  02  03  04  05  06  07  08  09  10  11  12  13  14  15  16  17  18  19  20  21  22  23  24  25  26  27  28  29  30  
   31  32  33  34  35  
[Printable]
395
FTUS45 KGJT 241210 AAA
TAFASE
TAF AMD
KASE 241210Z 2412/2512 34003KT 3SM -SN BR OVC025
      TEMPO 2412/2415 2SM -SN BR SCT012 OVC020
     FM241500 34004KT 3SM -SN BR FEW015 BKN025 OVC050
      TEMPO 2415/2419 1 1/2SM -SN BR SCT007 BKN015
     FM241900 35008KT 4SM -SN BR SCT015 OVC025
     FM250200 22004KT P6SM FEW025 OVC050=


395
FTUS45 KGJT 241210 AAA
TAFASE
TAF AMD
KASE 241210Z 2412/2512 34003KT 3SM -SN BR OVC025
      TEMPO 2412/2415 2SM -SN BR SCT012 OVC020
     FM241500 34004KT 3SM -SN BR FEW015 BKN025 OVC050
      TEMPO 2415/2419 1 1/2SM -SN BR SCT007 BKN015
     FM241900 35008KT 4SM -SN BR SCT015 OVC025
     FM250200 22004KT P6SM FEW025 OVC050=




U.S. Dept. of Commerce
NOAA National Weather Service
1325 East West Highway
Silver Spring, MD 20910
E-mail: w-nws.webmaster@noaa.gov
Page last modified: May 16, 2007
NATIONAL WEATHER SERVICE: for Safety, for Work, for Fun - FOR LIFE